sensor_id;sensor_type;location;lat;lon;timestamp;P1;durP1;ratioP1;P2;durP2;ratioP2
41861;SDS011;27537;57.134;-2.136;2022-08-18T00:01:32;6.38;;;1.80;;
41861;SDS011;27537;57.134;-2.136;2022-08-18T00:03:59;7.85;;;1.63;;
41861;SDS011;27537;57.134;-2.136;2022-08-18T00:06:45;7.25;;;1.77;;
41861;SDS011;27537;57.134;-2.136;2022-08-18T00:09:12;7.00;;;1.80;;
41861;SDS011;27537;57.134;-2.136;2022-08-18T00:11:39;6.43;;;1.88;;
41861;SDS011;27537;57.134;-2.136;2022-08-18T00:14:12;3.95;;;1.50;;
41861;SDS011;27537;57.134;-2.136;2022-08-18T00:16:47;5.57;;;1.88;;
41861;SDS011;27537;57.134;-2.136;2022-08-18T00:19:16;7.38;;;1.60;;
41861;SDS011;27537;57.134;-2.136;2022-08-18T00:21:42;4.65;;;1.33;;
41861;SDS011;27537;57.134;-2.136;2022-08-18T00:24:09;5.28;;;1.52;;
41861;SDS011;27537;57.134;-2.136;2022-08-18T00:26:36;4.97;;;1.65;;
41861;SDS011;27537;57.134;-2.136;2022-08-18T00:29:03;5.00;;;1.75;;
41861;SDS011;27537;57.134;-2.136;2022-08-18T00:31:30;5.80;;;1.58;;
41861;SDS011;27537;57.134;-2.136;2022-08-18T00:33:58;6.47;;;1.65;;
41861;SDS011;27537;57.134;-2.136;2022-08-18T00:36:26;5.75;;;1.42;;
41861;SDS011;27537;57.134;-2.136;2022-08-18T00:38:53;5.50;;;1.50;;
41861;SDS011;27537;57.134;-2.136;2022-08-18T00:41:20;7.95;;;2.03;;
41861;SDS011;27537;57.134;-2.136;2022-08-18T00:43:48;9.70;;;1.75;;
41861;SDS011;27537;57.134;-2.136;2022-08-18T00:46:18;7.43;;;1.50;;
41861;SDS011;27537;57.134;-2.136;2022-08-18T00:49:00;5.17;;;1.50;;
41861;SDS011;27537;57.134;-2.136;2022-08-18T00:51:35;8.20;;;2.08;;
41861;SDS011;27537;57.134;-2.136;2022-08-18T00:54:18;6.65;;;2.20;;
41861;SDS011;27537;57.134;-2.136;2022-08-18T00:56:50;6.07;;;1.77;;
41861;SDS011;27537;57.134;-2.136;2022-08-18T00:59:31;7.93;;;2.00;;
41861;SDS011;27537;57.134;-2.136;2022-08-18T01:02:14;5.75;;;1.60;;
41861;SDS011;27537;57.134;-2.136;2022-08-18T01:04:47;4.35;;;1.33;;
41861;SDS011;27537;57.134;-2.136;2022-08-18T01:07:34;5.20;;;1.63;;
41861;SDS011;27537;57.134;-2.136;2022-08-18T01:10:05;6.68;;;1.63;;
41861;SDS011;27537;57.134;-2.136;2022-08-18T01:12:32;5.68;;;1.65;;
41861;SDS011;27537;57.134;-2.136;2022-08-18T01:15:12;6.00;;;1.73;;
41861;SDS011;27537;57.134;-2.136;2022-08-18T01:20:44;10.65;;;1.50;;
41861;SDS011;27537;57.134;-2.136;2022-08-18T01:23:31;4.97;;;1.40;;
41861;SDS011;27537;57.134;-2.136;2022-08-18T01:25:58;8.07;;;1.50;;
41861;SDS011;27537;57.134;-2.136;2022-08-18T01:28:30;6.13;;;1.42;;
41861;SDS011;27537;57.134;-2.136;2022-08-18T01:30:59;5.78;;;1.50;;
41861;SDS011;27537;57.134;-2.136;2022-08-18T01:33:28;7.60;;;1.85;;
41861;SDS011;27537;57.134;-2.136;2022-08-18T01:36:08;7.82;;;1.80;;
41861;SDS011;27537;57.134;-2.136;2022-08-18T01:41:09;5.70;;;1.75;;
41861;SDS011;27537;57.134;-2.136;2022-08-18T01:43:55;4.75;;;1.73;;
41861;SDS011;27537;57.134;-2.136;2022-08-18T01:46:24;5.00;;;1.30;;
41861;SDS011;27537;57.134;-2.136;2022-08-18T01:48:52;6.85;;;1.70;;
41861;SDS011;27537;57.134;-2.136;2022-08-18T01:51:19;5.40;;;1.75;;
41861;SDS011;27537;57.134;-2.136;2022-08-18T01:54:05;5.05;;;1.20;;
41861;SDS011;27537;57.134;-2.136;2022-08-18T01:56:32;8.52;;;1.60;;
41861;SDS011;27537;57.134;-2.136;2022-08-18T01:58:59;6.93;;;1.70;;
41861;SDS011;27537;57.134;-2.136;2022-08-18T02:01:26;5.20;;;1.63;;
41861;SDS011;27537;57.134;-2.136;2022-08-18T02:04:02;6.43;;;1.75;;
41861;SDS011;27537;57.134;-2.136;2022-08-18T02:06:52;6.50;;;1.70;;
41861;SDS011;27537;57.134;-2.136;2022-08-18T02:09:19;3.58;;;1.30;;
41861;SDS011;27537;57.134;-2.136;2022-08-18T02:11:49;6.15;;;1.60;;
41861;SDS011;27537;57.134;-2.136;2022-08-18T02:14:18;6.50;;;1.38;;
41861;SDS011;27537;57.134;-2.136;2022-08-18T02:16:52;6.80;;;1.63;;
41861;SDS011;27537;57.134;-2.136;2022-08-18T02:19:24;5.80;;;1.25;;
41861;SDS011;27537;57.134;-2.136;2022-08-18T02:21:51;7.50;;;1.42;;
41861;SDS011;27537;57.134;-2.136;2022-08-18T02:24:18;6.82;;;1.50;;
41861;SDS011;27537;57.134;-2.136;2022-08-18T02:26:45;6.25;;;1.27;;
41861;SDS011;27537;57.134;-2.136;2022-08-18T02:29:12;3.95;;;1.40;;
41861;SDS011;27537;57.134;-2.136;2022-08-18T02:31:38;4.88;;;1.45;;
41861;SDS011;27537;57.134;-2.136;2022-08-18T02:34:05;5.63;;;1.40;;
41861;SDS011;27537;57.134;-2.136;2022-08-18T02:36:32;4.30;;;1.42;;
41861;SDS011;27537;57.134;-2.136;2022-08-18T02:38:59;7.70;;;1.70;;
41861;SDS011;27537;57.134;-2.136;2022-08-18T02:41:26;5.72;;;2.22;;
41861;SDS011;27537;57.134;-2.136;2022-08-18T02:43:54;5.75;;;1.70;;
41861;SDS011;27537;57.134;-2.136;2022-08-18T02:46:21;5.50;;;1.30;;
41861;SDS011;27537;57.134;-2.136;2022-08-18T02:48:55;5.38;;;1.40;;
41861;SDS011;27537;57.134;-2.136;2022-08-18T02:51:22;3.63;;;1.70;;
41861;SDS011;27537;57.134;-2.136;2022-08-18T02:53:51;8.20;;;1.67;;
41861;SDS011;27537;57.134;-2.136;2022-08-18T02:56:20;8.45;;;1.45;;
41861;SDS011;27537;57.134;-2.136;2022-08-18T02:59:07;4.85;;;1.40;;
41861;SDS011;27537;57.134;-2.136;2022-08-18T03:01:37;5.38;;;1.58;;
41861;SDS011;27537;57.134;-2.136;2022-08-18T03:04:06;3.03;;;1.10;;
41861;SDS011;27537;57.134;-2.136;2022-08-18T03:06:34;5.13;;;1.33;;
41861;SDS011;27537;57.134;-2.136;2022-08-18T03:09:03;4.88;;;1.48;;
41861;SDS011;27537;57.134;-2.136;2022-08-18T03:11:34;8.38;;;1.95;;
41861;SDS011;27537;57.134;-2.136;2022-08-18T03:14:02;7.10;;;1.45;;
41861;SDS011;27537;57.134;-2.136;2022-08-18T03:16:30;4.55;;;1.42;;
41861;SDS011;27537;57.134;-2.136;2022-08-18T03:18:59;7.45;;;1.45;;
41861;SDS011;27537;57.134;-2.136;2022-08-18T03:21:27;6.88;;;1.60;;
41861;SDS011;27537;57.134;-2.136;2022-08-18T03:23:57;13.05;;;2.10;;
41861;SDS011;27537;57.134;-2.136;2022-08-18T03:26:27;5.75;;;1.50;;
41861;SDS011;27537;57.134;-2.136;2022-08-18T03:28:56;7.97;;;1.95;;
41861;SDS011;27537;57.134;-2.136;2022-08-18T03:31:26;6.90;;;1.60;;
41861;SDS011;27537;57.134;-2.136;2022-08-18T03:33:57;5.53;;;1.40;;
41861;SDS011;27537;57.134;-2.136;2022-08-18T03:36:26;10.25;;;2.17;;
41861;SDS011;27537;57.134;-2.136;2022-08-18T03:38:56;5.60;;;1.75;;
41861;SDS011;27537;57.134;-2.136;2022-08-18T03:41:24;11.27;;;1.65;;
41861;SDS011;27537;57.134;-2.136;2022-08-18T03:44:12;6.38;;;1.52;;
41861;SDS011;27537;57.134;-2.136;2022-08-18T03:46:40;9.48;;;1.60;;
41861;SDS011;27537;57.134;-2.136;2022-08-18T03:49:08;8.63;;;1.42;;
41861;SDS011;27537;57.134;-2.136;2022-08-18T03:51:35;6.22;;;1.40;;
41861;SDS011;27537;57.134;-2.136;2022-08-18T03:54:03;6.80;;;1.63;;
41861;SDS011;27537;57.134;-2.136;2022-08-18T03:56:33;7.00;;;1.58;;
41861;SDS011;27537;57.134;-2.136;2022-08-18T03:59:08;8.18;;;1.90;;
41861;SDS011;27537;57.134;-2.136;2022-08-18T04:01:38;9.00;;;1.63;;
41861;SDS011;27537;57.134;-2.136;2022-08-18T04:04:08;6.15;;;1.50;;
41861;SDS011;27537;57.134;-2.136;2022-08-18T04:06:42;8.20;;;1.80;;
41861;SDS011;27537;57.134;-2.136;2022-08-18T04:09:17;4.80;;;1.30;;
41861;SDS011;27537;57.134;-2.136;2022-08-18T04:11:44;6.88;;;1.70;;
41861;SDS011;27537;57.134;-2.136;2022-08-18T04:14:12;8.52;;;1.80;;
41861;SDS011;27537;57.134;-2.136;2022-08-18T04:16:41;6.65;;;1.65;;
41861;SDS011;27537;57.134;-2.136;2022-08-18T04:19:09;6.60;;;1.70;;
41861;SDS011;27537;57.134;-2.136;2022-08-18T04:21:39;9.35;;;2.60;;
41861;SDS011;27537;57.134;-2.136;2022-08-18T04:24:08;11.73;;;2.40;;
41861;SDS011;27537;57.134;-2.136;2022-08-18T04:26:38;10.80;;;2.33;;
41861;SDS011;27537;57.134;-2.136;2022-08-18T04:29:12;6.63;;;2.03;;
41861;SDS011;27537;57.134;-2.136;2022-08-18T04:31:42;15.00;;;2.95;;
41861;SDS011;27537;57.134;-2.136;2022-08-18T04:34:10;6.93;;;2.00;;
41861;SDS011;27537;57.134;-2.136;2022-08-18T04:36:37;8.30;;;2.45;;
41861;SDS011;27537;57.134;-2.136;2022-08-18T04:39:05;8.20;;;2.10;;
41861;SDS011;27537;57.134;-2.136;2022-08-18T04:41:33;14.18;;;3.00;;
41861;SDS011;27537;57.134;-2.136;2022-08-18T04:44:02;10.98;;;2.75;;
41861;SDS011;27537;57.134;-2.136;2022-08-18T04:46:40;9.82;;;2.28;;
41861;SDS011;27537;57.134;-2.136;2022-08-18T04:49:09;12.05;;;3.45;;
41861;SDS011;27537;57.134;-2.136;2022-08-18T04:51:39;10.52;;;3.05;;
41861;SDS011;27537;57.134;-2.136;2022-08-18T04:54:28;11.13;;;2.78;;
41861;SDS011;27537;57.134;-2.136;2022-08-18T04:56:55;9.05;;;2.53;;
41861;SDS011;27537;57.134;-2.136;2022-08-18T04:59:21;7.60;;;2.15;;
41861;SDS011;27537;57.134;-2.136;2022-08-18T05:01:48;18.30;;;3.20;;
41861;SDS011;27537;57.134;-2.136;2022-08-18T05:04:15;8.57;;;2.20;;
41861;SDS011;27537;57.134;-2.136;2022-08-18T05:06:43;7.30;;;2.40;;
41861;SDS011;27537;57.134;-2.136;2022-08-18T05:09:12;19.73;;;3.00;;
41861;SDS011;27537;57.134;-2.136;2022-08-18T05:11:48;11.60;;;2.65;;
41861;SDS011;27537;57.134;-2.136;2022-08-18T05:14:16;14.15;;;3.53;;
41861;SDS011;27537;57.134;-2.136;2022-08-18T05:16:43;10.60;;;2.90;;
41861;SDS011;27537;57.134;-2.136;2022-08-18T05:19:15;11.35;;;3.00;;
41861;SDS011;27537;57.134;-2.136;2022-08-18T05:21:51;9.35;;;2.70;;
41861;SDS011;27537;57.134;-2.136;2022-08-18T05:24:26;12.93;;;2.97;;
41861;SDS011;27537;57.134;-2.136;2022-08-18T05:27:02;15.95;;;3.40;;
41861;SDS011;27537;57.134;-2.136;2022-08-18T05:29:30;14.23;;;3.33;;
41861;SDS011;27537;57.134;-2.136;2022-08-18T05:32:11;17.10;;;3.55;;
41861;SDS011;27537;57.134;-2.136;2022-08-18T05:35:06;19.73;;;3.10;;
41861;SDS011;27537;57.134;-2.136;2022-08-18T05:41:35;11.88;;;3.42;;
41861;SDS011;27537;57.134;-2.136;2022-08-18T05:43:41;12.90;;;2.55;;
41861;SDS011;27537;57.134;-2.136;2022-08-18T05:46:17;19.58;;;3.90;;
41861;SDS011;27537;57.134;-2.136;2022-08-18T05:48:47;16.33;;;3.35;;
41861;SDS011;27537;57.134;-2.136;2022-08-18T05:51:20;16.05;;;4.03;;
41861;SDS011;27537;57.134;-2.136;2022-08-18T05:53:53;24.02;;;4.25;;
41861;SDS011;27537;57.134;-2.136;2022-08-18T05:56:56;17.60;;;4.13;;
41861;SDS011;27537;57.134;-2.136;2022-08-18T05:59:33;17.02;;;3.78;;
41861;SDS011;27537;57.134;-2.136;2022-08-18T06:02:05;16.25;;;3.22;;
41861;SDS011;27537;57.134;-2.136;2022-08-18T06:07:14;14.55;;;3.30;;
41861;SDS011;27537;57.134;-2.136;2022-08-18T06:09:50;15.57;;;3.55;;
41861;SDS011;27537;57.134;-2.136;2022-08-18T06:12:22;16.42;;;3.92;;
41861;SDS011;27537;57.134;-2.136;2022-08-18T06:14:50;16.33;;;3.60;;
41861;SDS011;27537;57.134;-2.136;2022-08-18T06:25:48;12.30;;;2.78;;
41861;SDS011;27537;57.134;-2.136;2022-08-18T06:28:20;14.40;;;3.20;;
41861;SDS011;27537;57.134;-2.136;2022-08-18T06:30:58;17.23;;;3.30;;
41861;SDS011;27537;57.134;-2.136;2022-08-18T06:34:12;13.95;;;3.67;;
41861;SDS011;27537;57.134;-2.136;2022-08-18T06:42:15;11.65;;;2.97;;
41861;SDS011;27537;57.134;-2.136;2022-08-18T06:44:45;10.90;;;3.25;;
41861;SDS011;27537;57.134;-2.136;2022-08-18T06:47:22;11.50;;;2.72;;
41861;SDS011;27537;57.134;-2.136;2022-08-18T06:52:37;16.77;;;4.07;;
41861;SDS011;27537;57.134;-2.136;2022-08-18T06:55:16;11.63;;;3.25;;
41861;SDS011;27537;57.134;-2.136;2022-08-18T06:57:57;17.08;;;3.95;;
41861;SDS011;27537;57.134;-2.136;2022-08-18T07:00:27;16.58;;;4.07;;
41861;SDS011;27537;57.134;-2.136;2022-08-18T07:03:15;19.25;;;3.90;;
41861;SDS011;27537;57.134;-2.136;2022-08-18T07:08:31;18.52;;;3.83;;
41861;SDS011;27537;57.134;-2.136;2022-08-18T07:13:44;21.15;;;4.20;;
41861;SDS011;27537;57.134;-2.136;2022-08-18T07:16:33;11.05;;;3.25;;
41861;SDS011;27537;57.134;-2.136;2022-08-18T07:19:20;18.52;;;2.90;;
41861;SDS011;27537;57.134;-2.136;2022-08-18T07:24:27;16.20;;;4.13;;
41861;SDS011;27537;57.134;-2.136;2022-08-18T07:29:31;13.67;;;3.30;;
41861;SDS011;27537;57.134;-2.136;2022-08-18T07:32:02;14.60;;;4.15;;
41861;SDS011;27537;57.134;-2.136;2022-08-18T07:34:48;17.35;;;3.65;;
41861;SDS011;27537;57.134;-2.136;2022-08-18T07:37:23;18.83;;;4.70;;
41861;SDS011;27537;57.134;-2.136;2022-08-18T07:42:31;13.68;;;4.15;;
41861;SDS011;27537;57.134;-2.136;2022-08-18T07:45:36;19.23;;;3.90;;
41861;SDS011;27537;57.134;-2.136;2022-08-18T07:59:30;15.93;;;3.70;;
41861;SDS011;27537;57.134;-2.136;2022-08-18T08:02:23;13.30;;;3.55;;
41861;SDS011;27537;57.134;-2.136;2022-08-18T08:10:35;12.75;;;3.45;;
41861;SDS011;27537;57.134;-2.136;2022-08-18T08:13:21;15.00;;;3.92;;
41861;SDS011;27537;57.134;-2.136;2022-08-18T08:22:18;14.32;;;3.88;;
41861;SDS011;27537;57.134;-2.136;2022-08-18T08:30:04;13.80;;;4.70;;
41861;SDS011;27537;57.134;-2.136;2022-08-18T08:32:36;15.25;;;3.35;;
41861;SDS011;27537;57.134;-2.136;2022-08-18T08:35:11;16.05;;;3.67;;
41861;SDS011;27537;57.134;-2.136;2022-08-18T08:38:14;20.67;;;5.20;;
41861;SDS011;27537;57.134;-2.136;2022-08-18T08:41:08;11.80;;;3.55;;
41861;SDS011;27537;57.134;-2.136;2022-08-18T08:43:42;16.38;;;3.83;;
41861;SDS011;27537;57.134;-2.136;2022-08-18T08:46:23;18.92;;;3.65;;
41861;SDS011;27537;57.134;-2.136;2022-08-18T08:49:00;17.88;;;4.10;;
41861;SDS011;27537;57.134;-2.136;2022-08-18T08:51:38;9.50;;;3.33;;
41861;SDS011;27537;57.134;-2.136;2022-08-18T08:54:16;17.20;;;4.05;;
41861;SDS011;27537;57.134;-2.136;2022-08-18T08:56:49;14.57;;;4.13;;
41861;SDS011;27537;57.134;-2.136;2022-08-18T08:59:19;11.30;;;3.05;;
41861;SDS011;27537;57.134;-2.136;2022-08-18T09:07:33;8.68;;;2.97;;
41861;SDS011;27537;57.134;-2.136;2022-08-18T09:18:55;16.15;;;3.22;;
41861;SDS011;27537;57.134;-2.136;2022-08-18T09:34:57;14.50;;;3.33;;
41861;SDS011;27537;57.134;-2.136;2022-08-18T09:40:09;17.35;;;4.20;;
41861;SDS011;27537;57.134;-2.136;2022-08-18T09:43:19;19.80;;;3.70;;
41861;SDS011;27537;57.134;-2.136;2022-08-18T09:46:05;12.68;;;3.05;;
41861;SDS011;27537;57.134;-2.136;2022-08-18T09:48:38;11.38;;;4.07;;
41861;SDS011;27537;57.134;-2.136;2022-08-18T09:56:15;9.45;;;3.40;;
41861;SDS011;27537;57.134;-2.136;2022-08-18T09:58:57;12.07;;;3.97;;
41861;SDS011;27537;57.134;-2.136;2022-08-18T10:01:37;13.07;;;3.70;;
41861;SDS011;27537;57.134;-2.136;2022-08-18T10:04:25;15.05;;;4.15;;
41861;SDS011;27537;57.134;-2.136;2022-08-18T10:07:11;12.00;;;3.60;;
41861;SDS011;27537;57.134;-2.136;2022-08-18T10:13:33;10.00;;;3.20;;
41861;SDS011;27537;57.134;-2.136;2022-08-18T10:16:07;12.73;;;4.10;;
41861;SDS011;27537;57.134;-2.136;2022-08-18T10:18:58;15.18;;;4.28;;
41861;SDS011;27537;57.134;-2.136;2022-08-18T10:21:59;12.13;;;3.72;;
41861;SDS011;27537;57.134;-2.136;2022-08-18T10:27:50;9.48;;;3.63;;
41861;SDS011;27537;57.134;-2.136;2022-08-18T10:31:04;11.15;;;3.95;;
41861;SDS011;27537;57.134;-2.136;2022-08-18T10:39:10;11.75;;;3.40;;
41861;SDS011;27537;57.134;-2.136;2022-08-18T10:41:45;10.93;;;4.20;;
41861;SDS011;27537;57.134;-2.136;2022-08-18T10:44:23;12.48;;;4.10;;
41861;SDS011;27537;57.134;-2.136;2022-08-18T10:49:28;15.77;;;3.53;;
41861;SDS011;27537;57.134;-2.136;2022-08-18T11:00:13;14.20;;;4.90;;
41861;SDS011;27537;57.134;-2.136;2022-08-18T11:05:38;11.23;;;4.20;;
41861;SDS011;27537;57.134;-2.136;2022-08-18T11:08:06;11.50;;;4.95;;
41861;SDS011;27537;57.134;-2.136;2022-08-18T11:10:43;11.27;;;5.38;;
41861;SDS011;27537;57.134;-2.136;2022-08-18T11:13:41;12.68;;;5.60;;
41861;SDS011;27537;57.134;-2.136;2022-08-18T11:16:46;9.10;;;4.10;;
41861;SDS011;27537;57.134;-2.136;2022-08-18T11:19:39;12.98;;;4.57;;
41861;SDS011;27537;57.134;-2.136;2022-08-18T11:22:21;14.25;;;4.45;;
41861;SDS011;27537;57.134;-2.136;2022-08-18T11:24:58;15.57;;;5.00;;
41861;SDS011;27537;57.134;-2.136;2022-08-18T11:27:29;13.38;;;4.35;;
41861;SDS011;27537;57.134;-2.136;2022-08-18T11:30:05;17.55;;;3.83;;
41861;SDS011;27537;57.134;-2.136;2022-08-18T11:32:39;14.68;;;5.10;;
41861;SDS011;27537;57.134;-2.136;2022-08-18T11:35:18;13.90;;;4.18;;
41861;SDS011;27537;57.134;-2.136;2022-08-18T11:37:55;13.85;;;4.57;;
41861;SDS011;27537;57.134;-2.136;2022-08-18T11:40:36;9.65;;;4.00;;
41861;SDS011;27537;57.134;-2.136;2022-08-18T11:43:27;11.68;;;4.00;;
41861;SDS011;27537;57.134;-2.136;2022-08-18T11:46:21;16.40;;;5.82;;
41861;SDS011;27537;57.134;-2.136;2022-08-18T11:48:56;10.73;;;4.18;;
41861;SDS011;27537;57.134;-2.136;2022-08-18T11:51:28;11.43;;;4.50;;
41861;SDS011;27537;57.134;-2.136;2022-08-18T11:56:27;12.93;;;4.95;;
41861;SDS011;27537;57.134;-2.136;2022-08-18T12:02:17;16.98;;;6.03;;
41861;SDS011;27537;57.134;-2.136;2022-08-18T12:04:48;13.63;;;5.28;;
41861;SDS011;27537;57.134;-2.136;2022-08-18T12:07:29;13.15;;;4.68;;
41861;SDS011;27537;57.134;-2.136;2022-08-18T12:12:48;14.45;;;4.63;;
41861;SDS011;27537;57.134;-2.136;2022-08-18T12:17:50;16.92;;;6.13;;
41861;SDS011;27537;57.134;-2.136;2022-08-18T12:20:18;16.63;;;4.68;;
41861;SDS011;27537;57.134;-2.136;2022-08-18T12:22:46;16.67;;;6.93;;
41861;SDS011;27537;57.134;-2.136;2022-08-18T12:25:16;14.77;;;5.47;;
41861;SDS011;27537;57.134;-2.136;2022-08-18T12:27:51;14.63;;;6.43;;
41861;SDS011;27537;57.134;-2.136;2022-08-18T12:30:19;13.45;;;5.90;;
41861;SDS011;27537;57.134;-2.136;2022-08-18T12:32:46;19.08;;;6.55;;
41861;SDS011;27537;57.134;-2.136;2022-08-18T12:35:16;17.42;;;7.65;;
41861;SDS011;27537;57.134;-2.136;2022-08-18T12:37:47;19.02;;;7.93;;
41861;SDS011;27537;57.134;-2.136;2022-08-18T12:40:35;16.13;;;6.10;;
41861;SDS011;27537;57.134;-2.136;2022-08-18T12:43:02;18.05;;;6.53;;
41861;SDS011;27537;57.134;-2.136;2022-08-18T12:45:31;17.85;;;6.25;;
41861;SDS011;27537;57.134;-2.136;2022-08-18T12:47:58;18.67;;;5.72;;
41861;SDS011;27537;57.134;-2.136;2022-08-18T12:50:29;25.33;;;7.50;;
41861;SDS011;27537;57.134;-2.136;2022-08-18T12:53:03;18.70;;;6.70;;
41861;SDS011;27537;57.134;-2.136;2022-08-18T12:55:35;16.38;;;6.07;;
41861;SDS011;27537;57.134;-2.136;2022-08-18T12:58:10;15.55;;;6.95;;
41861;SDS011;27537;57.134;-2.136;2022-08-18T13:00:37;20.58;;;6.35;;
41861;SDS011;27537;57.134;-2.136;2022-08-18T13:03:06;22.98;;;6.40;;
41861;SDS011;27537;57.134;-2.136;2022-08-18T13:05:34;18.08;;;6.90;;
41861;SDS011;27537;57.134;-2.136;2022-08-18T13:08:03;16.88;;;5.57;;
41861;SDS011;27537;57.134;-2.136;2022-08-18T13:10:32;14.38;;;5.22;;
41861;SDS011;27537;57.134;-2.136;2022-08-18T13:13:15;23.65;;;6.85;;
41861;SDS011;27537;57.134;-2.136;2022-08-18T13:15:45;20.70;;;7.03;;
41861;SDS011;27537;57.134;-2.136;2022-08-18T13:18:26;17.83;;;6.13;;
41861;SDS011;27537;57.134;-2.136;2022-08-18T13:20:55;19.88;;;6.70;;
41861;SDS011;27537;57.134;-2.136;2022-08-18T13:23:25;18.92;;;5.68;;
41861;SDS011;27537;57.134;-2.136;2022-08-18T13:25:53;14.35;;;5.00;;
41861;SDS011;27537;57.134;-2.136;2022-08-18T13:28:30;17.83;;;5.22;;
41861;SDS011;27537;57.134;-2.136;2022-08-18T13:31:02;15.38;;;5.35;;
41861;SDS011;27537;57.134;-2.136;2022-08-18T13:33:31;18.00;;;5.32;;
41861;SDS011;27537;57.134;-2.136;2022-08-18T13:36:18;16.98;;;4.63;;
41861;SDS011;27537;57.134;-2.136;2022-08-18T13:38:47;15.75;;;5.00;;
41861;SDS011;27537;57.134;-2.136;2022-08-18T13:41:20;17.88;;;5.93;;
41861;SDS011;27537;57.134;-2.136;2022-08-18T13:43:49;19.65;;;5.90;;
41861;SDS011;27537;57.134;-2.136;2022-08-18T13:46:18;21.52;;;5.75;;
41861;SDS011;27537;57.134;-2.136;2022-08-18T13:48:55;17.70;;;4.50;;
41861;SDS011;27537;57.134;-2.136;2022-08-18T13:51:28;17.23;;;4.55;;
41861;SDS011;27537;57.134;-2.136;2022-08-18T13:53:56;15.00;;;5.22;;
41861;SDS011;27537;57.134;-2.136;2022-08-18T13:56:43;18.00;;;5.00;;
41861;SDS011;27537;57.134;-2.136;2022-08-18T13:59:17;16.13;;;6.03;;
41861;SDS011;27537;57.134;-2.136;2022-08-18T14:01:48;22.15;;;7.15;;
41861;SDS011;27537;57.134;-2.136;2022-08-18T14:04:18;38.33;;;16.67;;
41861;SDS011;27537;57.134;-2.136;2022-08-18T14:06:51;25.83;;;9.18;;
41861;SDS011;27537;57.134;-2.136;2022-08-18T14:09:23;42.15;;;20.42;;
41861;SDS011;27537;57.134;-2.136;2022-08-18T14:12:06;19.52;;;6.70;;
41861;SDS011;27537;57.134;-2.136;2022-08-18T14:14:48;17.40;;;5.30;;
41861;SDS011;27537;57.134;-2.136;2022-08-18T14:17:17;16.95;;;5.32;;
41861;SDS011;27537;57.134;-2.136;2022-08-18T14:19:48;17.15;;;4.60;;
41861;SDS011;27537;57.134;-2.136;2022-08-18T14:22:48;13.43;;;5.60;;
41861;SDS011;27537;57.134;-2.136;2022-08-18T14:25:38;13.07;;;5.00;;
41861;SDS011;27537;57.134;-2.136;2022-08-18T14:28:25;11.38;;;4.10;;
41861;SDS011;27537;57.134;-2.136;2022-08-18T14:30:54;13.50;;;4.13;;
41861;SDS011;27537;57.134;-2.136;2022-08-18T14:33:22;15.48;;;4.57;;
41861;SDS011;27537;57.134;-2.136;2022-08-18T14:36:11;17.77;;;4.82;;
41861;SDS011;27537;57.134;-2.136;2022-08-18T14:38:39;16.88;;;5.43;;
41861;SDS011;27537;57.134;-2.136;2022-08-18T14:41:09;14.98;;;4.60;;
41861;SDS011;27537;57.134;-2.136;2022-08-18T14:43:39;18.53;;;5.13;;
41861;SDS011;27537;57.134;-2.136;2022-08-18T14:46:26;16.25;;;4.68;;
41861;SDS011;27537;57.134;-2.136;2022-08-18T14:48:58;16.45;;;4.88;;
41861;SDS011;27537;57.134;-2.136;2022-08-18T14:51:29;14.95;;;4.88;;
41861;SDS011;27537;57.134;-2.136;2022-08-18T14:53:58;13.85;;;4.40;;
41861;SDS011;27537;57.134;-2.136;2022-08-18T14:56:26;16.83;;;4.35;;
41861;SDS011;27537;57.134;-2.136;2022-08-18T14:58:55;13.43;;;4.45;;
41861;SDS011;27537;57.134;-2.136;2022-08-18T15:01:22;14.10;;;5.00;;
41861;SDS011;27537;57.134;-2.136;2022-08-18T15:03:52;20.02;;;4.63;;
41861;SDS011;27537;57.134;-2.136;2022-08-18T15:06:20;13.13;;;4.13;;
41861;SDS011;27537;57.134;-2.136;2022-08-18T15:08:52;13.83;;;4.87;;
41861;SDS011;27537;57.134;-2.136;2022-08-18T15:11:22;13.57;;;4.25;;
41861;SDS011;27537;57.134;-2.136;2022-08-18T15:13:50;12.27;;;3.50;;
41861;SDS011;27537;57.134;-2.136;2022-08-18T15:16:21;18.42;;;4.97;;
41861;SDS011;27537;57.134;-2.136;2022-08-18T15:18:57;11.70;;;4.15;;
41861;SDS011;27537;57.134;-2.136;2022-08-18T15:21:25;10.77;;;3.80;;
41861;SDS011;27537;57.134;-2.136;2022-08-18T15:24:13;17.25;;;3.50;;
41861;SDS011;27537;57.134;-2.136;2022-08-18T15:27:04;18.48;;;4.53;;
41861;SDS011;27537;57.134;-2.136;2022-08-18T15:29:44;15.63;;;3.90;;
41861;SDS011;27537;57.134;-2.136;2022-08-18T15:32:11;11.90;;;3.03;;
41861;SDS011;27537;57.134;-2.136;2022-08-18T15:34:42;15.35;;;4.10;;
41861;SDS011;27537;57.134;-2.136;2022-08-18T15:37:16;11.70;;;3.53;;
41861;SDS011;27537;57.134;-2.136;2022-08-18T15:39:56;10.38;;;3.38;;
41861;SDS011;27537;57.134;-2.136;2022-08-18T15:42:25;10.68;;;3.05;;
41861;SDS011;27537;57.134;-2.136;2022-08-18T15:44:52;11.15;;;2.85;;
41861;SDS011;27537;57.134;-2.136;2022-08-18T15:47:19;19.00;;;4.53;;
41861;SDS011;27537;57.134;-2.136;2022-08-18T15:49:50;9.00;;;2.95;;
41861;SDS011;27537;57.134;-2.136;2022-08-18T15:52:20;10.57;;;2.72;;
41861;SDS011;27537;57.134;-2.136;2022-08-18T15:54:51;12.15;;;3.72;;
41861;SDS011;27537;57.134;-2.136;2022-08-18T15:57:23;10.23;;;3.15;;
41861;SDS011;27537;57.134;-2.136;2022-08-18T16:00:05;10.60;;;2.75;;
41861;SDS011;27537;57.134;-2.136;2022-08-18T16:02:37;9.93;;;2.63;;
41861;SDS011;27537;57.134;-2.136;2022-08-18T16:05:13;12.13;;;2.70;;
41861;SDS011;27537;57.134;-2.136;2022-08-18T16:07:40;11.25;;;2.90;;
41861;SDS011;27537;57.134;-2.136;2022-08-18T16:10:11;11.55;;;3.15;;
41861;SDS011;27537;57.134;-2.136;2022-08-18T16:12:38;10.57;;;2.72;;
41861;SDS011;27537;57.134;-2.136;2022-08-18T16:15:12;12.07;;;2.60;;
41861;SDS011;27537;57.134;-2.136;2022-08-18T16:17:46;18.08;;;3.03;;
41861;SDS011;27537;57.134;-2.136;2022-08-18T16:20:14;12.80;;;2.63;;
41861;SDS011;27537;57.134;-2.136;2022-08-18T16:22:44;15.73;;;3.47;;
41861;SDS011;27537;57.134;-2.136;2022-08-18T16:25:12;12.60;;;2.33;;
41861;SDS011;27537;57.134;-2.136;2022-08-18T16:27:42;11.30;;;3.45;;
41861;SDS011;27537;57.134;-2.136;2022-08-18T16:30:10;13.88;;;3.05;;
41861;SDS011;27537;57.134;-2.136;2022-08-18T16:32:39;21.67;;;5.68;;
41861;SDS011;27537;57.134;-2.136;2022-08-18T16:35:06;19.40;;;10.30;;
41861;SDS011;27537;57.134;-2.136;2022-08-18T16:37:34;16.02;;;5.75;;
41861;SDS011;27537;57.134;-2.136;2022-08-18T16:40:00;13.52;;;3.33;;
41861;SDS011;27537;57.134;-2.136;2022-08-18T16:42:27;12.13;;;2.90;;
41861;SDS011;27537;57.134;-2.136;2022-08-18T16:44:58;10.98;;;3.03;;
41861;SDS011;27537;57.134;-2.136;2022-08-18T16:47:26;12.25;;;3.13;;
41861;SDS011;27537;57.134;-2.136;2022-08-18T16:49:53;13.00;;;3.35;;
41861;SDS011;27537;57.134;-2.136;2022-08-18T16:52:24;11.90;;;3.35;;
41861;SDS011;27537;57.134;-2.136;2022-08-18T16:54:52;9.25;;;2.72;;
41861;SDS011;27537;57.134;-2.136;2022-08-18T16:57:23;11.25;;;2.80;;
41861;SDS011;27537;57.134;-2.136;2022-08-18T17:00:18;17.65;;;3.05;;
41861;SDS011;27537;57.134;-2.136;2022-08-18T17:03:04;10.45;;;2.35;;
41861;SDS011;27537;57.134;-2.136;2022-08-18T17:08:35;14.27;;;3.05;;
41861;SDS011;27537;57.134;-2.136;2022-08-18T17:11:03;12.18;;;2.78;;
41861;SDS011;27537;57.134;-2.136;2022-08-18T17:13:31;12.77;;;2.35;;
41861;SDS011;27537;57.134;-2.136;2022-08-18T17:15:58;11.05;;;2.60;;
41861;SDS011;27537;57.134;-2.136;2022-08-18T17:18:25;14.75;;;2.95;;
41861;SDS011;27537;57.134;-2.136;2022-08-18T17:20:52;12.48;;;2.63;;
41861;SDS011;27537;57.134;-2.136;2022-08-18T17:23:20;7.30;;;1.83;;
41861;SDS011;27537;57.134;-2.136;2022-08-18T17:25:48;9.10;;;2.70;;
41861;SDS011;27537;57.134;-2.136;2022-08-18T17:28:16;14.82;;;3.35;;
41861;SDS011;27537;57.134;-2.136;2022-08-18T17:30:51;12.52;;;2.30;;